createdAt,value
2023-04-22T00:02:19.631Z,16.80
2023-04-22T00:04:48.029Z,16.90
2023-04-22T00:07:18.996Z,16.90
2023-04-22T00:09:47.280Z,17.00
2023-04-22T00:12:15.501Z,17.00
2023-04-22T00:14:43.723Z,16.90
2023-04-22T00:17:11.984Z,16.90
2023-04-22T00:19:42.751Z,16.90
2023-04-22T00:22:11.176Z,16.90
2023-04-22T00:24:39.414Z,16.80
2023-04-22T00:27:08.134Z,16.80
2023-04-22T00:29:36.675Z,16.90
2023-04-22T00:32:05.266Z,16.90
2023-04-22T00:34:33.507Z,16.90
2023-04-22T00:37:03.388Z,16.90
2023-04-22T00:39:31.619Z,17.00
2023-04-22T00:42:01.977Z,17.00
2023-04-22T00:44:31.024Z,17.00
2023-04-22T00:47:00.348Z,17.00
2023-04-22T00:49:29.390Z,17.00
2023-04-22T00:51:57.597Z,17.00
2023-04-22T00:54:28.821Z,16.90
2023-04-22T00:56:57.865Z,16.90
2023-04-22T00:59:27.706Z,16.90
2023-04-22T01:01:56.967Z,16.90
2023-04-22T01:04:25.872Z,17.00
2023-04-22T01:06:54.473Z,16.80
2023-04-22T01:09:22.775Z,16.80
2023-04-22T01:11:52.670Z,17.00
2023-04-22T01:14:20.947Z,17.00
2023-04-22T01:16:50.022Z,16.90
2023-04-22T01:19:18.430Z,16.90
2023-04-22T01:21:48.251Z,16.90
2023-04-22T01:24:18.291Z,16.90
2023-04-22T01:26:47.313Z,16.90
2023-04-22T01:29:16.456Z,16.80
2023-04-22T01:31:44.984Z,16.80
2023-04-22T01:34:13.523Z,16.80
2023-04-22T01:36:41.803Z,16.70
2023-04-22T01:39:10.070Z,16.70
2023-04-22T01:41:39.746Z,16.70
2023-04-22T01:44:08.028Z,16.80
2023-04-22T01:46:36.550Z,16.90
2023-04-22T01:49:04.945Z,16.90
2023-04-22T01:51:33.371Z,16.90
2023-04-22T01:54:04.020Z,16.90
2023-04-22T01:56:32.283Z,16.90
2023-04-22T01:59:01.882Z,16.90
2023-04-22T02:01:30.243Z,16.90
2023-04-22T02:03:58.516Z,16.80
2023-04-22T02:06:27.485Z,16.80
2023-04-22T02:08:55.730Z,16.80
2023-04-22T02:11:23.944Z,16.70
2023-04-22T02:13:52.364Z,16.80
2023-04-22T02:16:21.950Z,16.80
2023-04-22T02:18:50.354Z,16.80
2023-04-22T02:21:18.586Z,16.80
2023-04-22T02:23:46.968Z,16.70
2023-04-22T02:26:15.178Z,16.80
2023-04-22T02:28:43.852Z,16.70
2023-04-22T02:31:12.079Z,16.70
2023-04-22T02:33:41.710Z,16.70
2023-04-22T02:36:10.315Z,16.80
2023-04-22T02:38:39.512Z,16.80
2023-04-22T02:41:07.742Z,16.70
2023-04-22T02:43:35.988Z,16.70
2023-04-22T02:46:04.266Z,16.80
2023-04-22T02:48:32.506Z,16.70
2023-04-22T02:51:02.107Z,16.70
2023-04-22T02:53:30.324Z,16.70
2023-04-22T02:55:58.576Z,16.70
2023-04-22T02:58:26.847Z,16.70
2023-04-22T03:00:56.876Z,16.70
2023-04-22T03:03:25.472Z,16.70
2023-04-22T03:05:53.861Z,16.70
2023-04-22T03:08:24.045Z,16.70
2023-04-22T03:10:52.335Z,16.70
2023-04-22T03:13:20.555Z,16.70
2023-04-22T03:15:48.768Z,16.70
2023-04-22T03:18:16.990Z,16.70
2023-04-22T03:20:45.267Z,16.70
2023-04-22T03:23:13.459Z,16.60
2023-04-22T03:25:43.098Z,16.70
2023-04-22T03:28:11.317Z,16.70
2023-04-22T03:30:39.597Z,16.70
2023-04-22T03:33:07.908Z,16.60
2023-04-22T03:35:36.201Z,16.50
2023-04-22T03:38:04.416Z,16.60
2023-04-22T03:40:32.689Z,16.50
2023-04-22T03:43:03.650Z,16.60
2023-04-22T03:45:31.950Z,16.60
2023-04-22T03:48:00.272Z,16.60
2023-04-22T03:50:28.553Z,16.60
2023-04-22T03:52:56.767Z,16.70
2023-04-22T03:55:25.065Z,16.60
2023-04-22T03:57:53.313Z,16.60
2023-04-22T04:00:23.106Z,16.60
2023-04-22T04:02:51.454Z,16.50
2023-04-22T04:05:20.533Z,16.50
2023-04-22T04:07:48.776Z,16.50
2023-04-22T04:10:17.240Z,16.50
2023-04-22T04:12:45.453Z,16.50
2023-04-22T04:15:13.707Z,16.50
2023-04-22T04:17:43.850Z,16.50
2023-04-22T04:20:13.076Z,16.40
2023-04-22T04:22:41.521Z,16.50
2023-04-22T04:25:10.393Z,16.60
2023-04-22T04:27:39.223Z,16.60
2023-04-22T04:30:09.737Z,16.60
2023-04-22T04:32:38.006Z,16.60
2023-04-22T04:35:08.979Z,16.60
2023-04-22T04:37:40.375Z,16.60
2023-04-22T04:40:10.367Z,16.60
2023-04-22T04:42:38.596Z,16.60
2023-04-22T04:45:09.574Z,16.60
2023-04-22T04:47:37.982Z,16.50
2023-04-22T04:50:09.134Z,16.40
2023-04-22T04:52:37.382Z,16.40
2023-04-22T04:55:06.559Z,16.50
2023-04-22T04:57:36.622Z,16.50
2023-04-22T05:00:08.941Z,16.60
2023-04-22T05:02:37.408Z,16.60
2023-04-22T05:05:08.476Z,16.60
2023-04-22T05:07:36.715Z,16.60
2023-04-22T05:10:05.882Z,16.50
2023-04-22T05:12:34.107Z,16.60
2023-04-22T05:15:02.860Z,16.60
2023-04-22T05:17:31.275Z,16.60
2023-04-22T05:19:59.564Z,16.60
2023-04-22T05:22:29.208Z,16.60
2023-04-22T05:24:57.458Z,16.70
2023-04-22T05:27:25.875Z,16.70
2023-04-22T05:29:54.124Z,16.70
2023-04-22T05:32:22.534Z,16.70
2023-04-22T05:34:50.897Z,16.70
2023-04-22T05:37:19.346Z,16.70
2023-04-22T05:39:48.918Z,16.70
2023-04-22T05:42:17.154Z,16.80
2023-04-22T05:44:45.370Z,16.80
2023-04-22T05:47:13.596Z,16.80
2023-04-22T05:49:42.123Z,16.80
2023-04-22T05:52:10.703Z,16.80
2023-04-22T05:54:39.121Z,16.80
2023-04-22T05:57:08.894Z,16.90
2023-04-22T05:59:37.135Z,16.80
2023-04-22T06:02:05.502Z,16.60
2023-04-22T06:04:37.180Z,16.80
2023-04-22T06:07:06.068Z,16.70
2023-04-22T06:09:34.351Z,16.70
2023-04-22T06:12:03.097Z,16.60
2023-04-22T06:14:32.686Z,16.40
2023-04-22T06:17:00.957Z,15.80
2023-04-22T06:19:29.211Z,15.50
2023-04-22T06:21:57.460Z,15.70
2023-04-22T06:24:25.811Z,15.90
2023-04-22T06:26:54.096Z,16.10
2023-04-22T06:29:22.342Z,16.10
2023-04-22T06:31:53.456Z,16.20
2023-04-22T06:34:21.756Z,17.40
2023-04-22T06:36:51.289Z,17.50
2023-04-22T06:39:19.549Z,16.70
2023-04-22T06:41:47.873Z,17.80
2023-04-22T06:44:16.168Z,19.10
2023-04-22T06:46:44.606Z,18.80
2023-04-22T06:49:14.238Z,19.10
2023-04-22T06:51:42.532Z,18.70
2023-04-22T06:54:10.777Z,17.80
2023-04-22T06:56:39.198Z,17.30
2023-04-22T06:59:08.055Z,18.50
2023-04-22T07:01:36.378Z,17.30
2023-04-22T07:04:04.709Z,17.60
2023-04-22T07:06:34.368Z,17.50
2023-04-22T07:09:02.667Z,17.80
2023-04-22T07:11:32.103Z,18.20
2023-04-22T07:14:00.363Z,17.90
2023-04-22T07:16:29.115Z,17.90
2023-04-22T07:18:57.368Z,18.00
2023-04-22T07:21:26.316Z,17.80
2023-04-22T07:23:56.004Z,18.60
2023-04-22T07:26:24.234Z,18.20
2023-04-22T07:28:52.757Z,18.70
2023-04-22T07:31:21.007Z,18.00
2023-04-22T07:33:49.312Z,18.10
2023-04-22T07:36:17.524Z,18.10
2023-04-22T07:38:45.971Z,18.30
2023-04-22T07:41:15.532Z,18.20
2023-04-22T07:43:43.802Z,18.50
2023-04-22T07:46:12.061Z,18.80
2023-04-22T07:48:40.427Z,18.50
2023-04-22T07:51:08.656Z,18.80
2023-04-22T07:53:36.925Z,19.70
2023-04-22T07:56:06.139Z,19.30
2023-04-22T07:58:35.793Z,19.00
2023-04-22T08:01:04.208Z,18.70
2023-04-22T08:03:32.846Z,18.70
2023-04-22T08:06:01.263Z,18.30
2023-04-22T08:08:29.503Z,18.50
2023-04-22T08:10:57.755Z,18.30
2023-04-22T08:13:26.201Z,18.50
2023-04-22T08:15:55.998Z,18.80
2023-04-22T08:18:24.320Z,18.10
2023-04-22T08:20:52.540Z,18.20
2023-04-22T08:23:21.453Z,18.10
2023-04-22T08:25:50.039Z,18.60
2023-04-22T08:28:18.361Z,18.60
2023-04-22T08:30:46.640Z,18.50
2023-04-22T08:33:16.967Z,19.20
2023-04-22T08:35:45.209Z,19.10
2023-04-22T08:38:13.475Z,19.40
2023-04-22T08:40:43.346Z,19.00
2023-04-22T08:43:12.582Z,19.40
2023-04-22T08:45:41.734Z,19.40
2023-04-22T08:48:12.993Z,19.00
2023-04-22T08:50:43.285Z,18.70
2023-04-22T08:53:11.591Z,18.40
2023-04-22T08:55:41.122Z,18.70
2023-04-22T08:58:09.808Z,18.90
2023-04-22T09:00:38.132Z,19.50
2023-04-22T09:03:08.913Z,19.70
2023-04-22T09:05:41.340Z,19.90
2023-04-22T09:08:12.113Z,20.00
2023-04-22T09:10:41.096Z,19.80
2023-04-22T09:13:10.817Z,20.20
2023-04-22T09:15:39.042Z,20.90
2023-04-22T09:18:10.189Z,20.30
2023-04-22T09:20:43.024Z,19.80
2023-04-22T09:23:14.731Z,20.10
2023-04-22T09:25:43.264Z,20.10
2023-04-22T09:28:14.318Z,20.10
2023-04-22T09:30:42.535Z,20.50
2023-04-22T09:33:10.927Z,21.00
2023-04-22T09:35:41.956Z,21.30
2023-04-22T09:38:13.540Z,21.60
2023-04-22T09:40:45.171Z,21.50
2023-04-22T09:43:14.001Z,21.10
2023-04-22T09:45:43.964Z,21.20
2023-04-22T09:48:14.432Z,20.50
2023-04-22T09:50:46.519Z,20.70
2023-04-22T09:53:18.672Z,20.60
2023-04-22T09:55:49.006Z,20.70
2023-04-22T09:58:19.886Z,20.40
2023-04-22T10:00:52.503Z,20.60
2023-04-22T10:03:21.360Z,20.90
2023-04-22T10:05:49.743Z,20.70
2023-04-22T10:08:19.407Z,20.60
2023-04-22T10:10:48.040Z,20.20
2023-04-22T10:13:16.355Z,20.00
2023-04-22T10:15:50.469Z,20.10
2023-04-22T10:18:23.995Z,20.60
2023-04-22T10:20:54.589Z,21.60
2023-04-22T10:23:26.072Z,22.00
2023-04-22T10:25:56.966Z,22.50
2023-04-22T10:28:30.841Z,22.00
2023-04-22T10:30:59.219Z,21.40
2023-04-22T10:33:40.167Z,21.50
2023-04-22T10:36:11.621Z,21.80
2023-04-22T10:39:02.789Z,21.80
2023-04-22T10:41:34.240Z,22.30
2023-04-22T10:44:07.339Z,22.20
2023-04-22T10:47:01.893Z,22.40
2023-04-22T10:49:34.888Z,22.00
2023-04-22T10:52:05.075Z,21.80
2023-04-22T10:55:03.410Z,21.00
2023-04-22T10:57:41.714Z,20.60
2023-04-22T11:00:53.319Z,20.90
2023-04-22T11:03:29.956Z,21.30
2023-04-22T11:06:19.937Z,21.90
2023-04-22T11:08:49.950Z,22.20
2023-04-22T11:11:20.639Z,22.50
2023-04-22T11:13:51.885Z,22.20
2023-04-22T11:16:23.778Z,22.20
2023-04-22T11:18:52.095Z,22.70
2023-04-22T11:21:21.671Z,22.50
2023-04-22T11:23:52.949Z,22.40
2023-04-22T11:26:35.218Z,22.40
2023-04-22T11:29:03.526Z,21.90
2023-04-22T11:31:31.918Z,21.30
2023-04-22T11:34:00.867Z,21.80
2023-04-22T11:36:29.181Z,21.90
2023-04-22T11:38:57.537Z,22.10
2023-04-22T11:41:30.074Z,21.70
2023-04-22T11:43:58.393Z,21.70
2023-04-22T11:46:31.454Z,22.00
2023-04-22T11:49:17.120Z,22.00
2023-04-22T11:52:03.334Z,21.40
2023-04-22T11:54:36.440Z,21.30
2023-04-22T11:57:09.439Z,21.30
2023-04-22T11:59:38.121Z,21.20
2023-04-22T12:02:07.135Z,21.30
2023-04-22T12:04:38.916Z,21.50
2023-04-22T12:07:07.455Z,21.10
2023-04-22T12:09:35.843Z,21.10
2023-04-22T12:12:06.812Z,20.80
2023-04-22T12:14:35.783Z,20.90
2023-04-22T12:17:05.841Z,20.90
2023-04-22T12:19:34.147Z,21.00
2023-04-22T12:22:02.382Z,21.20
2023-04-22T12:24:31.171Z,21.50
2023-04-22T12:26:59.657Z,21.50
2023-04-22T12:29:34.972Z,21.70
2023-04-22T12:32:03.954Z,21.70
2023-04-22T12:34:32.170Z,22.30
2023-04-22T12:37:00.805Z,22.30
2023-04-22T12:39:29.038Z,22.50
2023-04-22T12:41:57.825Z,22.20
2023-04-22T12:44:26.064Z,22.30
2023-04-22T12:46:57.684Z,22.60
2023-04-22T12:49:26.163Z,22.30
2023-04-22T12:51:54.403Z,22.10
2023-04-22T12:54:23.304Z,21.60
2023-04-22T12:56:52.196Z,21.70
2023-04-22T12:59:21.145Z,21.60
2023-04-22T13:01:49.430Z,21.70
2023-04-22T13:04:20.249Z,21.50
2023-04-22T13:06:50.586Z,21.40
2023-04-22T13:09:18.879Z,21.20
2023-04-22T13:11:49.283Z,21.10
2023-04-22T13:14:17.511Z,21.00
2023-04-22T13:16:45.891Z,20.90
2023-04-22T13:19:14.357Z,21.40
2023-04-22T13:21:45.045Z,21.70
2023-04-22T13:24:13.290Z,21.50
2023-04-22T13:26:41.506Z,21.30
2023-04-22T13:29:14.038Z,21.00
2023-04-22T13:31:44.592Z,20.60
2023-04-22T13:34:13.244Z,20.60
2023-04-22T13:36:42.885Z,20.60
2023-04-22T13:39:11.506Z,20.40
2023-04-22T13:41:39.718Z,20.20
2023-04-22T13:44:07.975Z,19.60
2023-04-22T13:46:36.222Z,19.00
2023-04-22T13:49:04.492Z,18.80
2023-04-22T13:51:33.239Z,19.10
2023-04-22T13:54:03.122Z,19.90
2023-04-22T13:56:31.677Z,20.30
2023-04-22T13:59:00.366Z,19.80
2023-04-22T14:01:29.091Z,20.10
2023-04-22T14:03:57.484Z,20.60
2023-04-22T14:06:25.751Z,20.80
2023-04-22T14:08:53.972Z,20.10
2023-04-22T14:11:23.760Z,19.80
2023-04-22T14:13:52.386Z,19.10
2023-04-22T14:16:20.708Z,19.20
2023-04-22T14:18:49.181Z,19.50
2023-04-22T14:21:17.560Z,19.40
2023-04-22T14:23:45.906Z,19.70
2023-04-22T14:26:14.259Z,19.40
2023-04-22T14:28:44.217Z,19.80
2023-04-22T14:31:12.858Z,19.90
2023-04-22T14:33:41.238Z,19.70
2023-04-22T14:36:09.697Z,19.30
2023-04-22T14:38:37.956Z,19.70
2023-04-22T14:41:06.671Z,20.20
2023-04-22T14:43:35.182Z,20.00
2023-04-22T14:46:05.289Z,20.50
2023-04-22T14:48:35.443Z,20.60
2023-04-22T14:51:03.736Z,21.20
2023-04-22T14:53:33.476Z,21.40
2023-04-22T14:56:01.727Z,21.60
2023-04-22T14:58:31.553Z,21.40
2023-04-22T15:01:00.813Z,21.20
2023-04-22T15:03:30.837Z,21.60
2023-04-22T15:05:59.175Z,20.70
2023-04-22T15:08:27.541Z,20.50
2023-04-22T15:10:55.837Z,19.50
2023-04-22T15:13:24.207Z,20.40
2023-04-22T15:15:52.556Z,20.60
2023-04-22T15:18:21.002Z,20.80
2023-04-22T15:20:50.668Z,21.40
2023-04-22T15:23:18.921Z,21.60
2023-04-22T15:25:47.261Z,21.70
2023-04-22T15:28:15.743Z,21.60
2023-04-22T15:30:44.057Z,21.40
2023-04-22T15:33:12.364Z,21.50
2023-04-22T15:35:42.499Z,21.50
2023-04-22T15:38:12.348Z,21.80
2023-04-22T15:40:40.614Z,21.40
2023-04-22T15:43:09.025Z,21.40
2023-04-22T15:45:37.741Z,21.30
2023-04-22T15:48:06.668Z,21.20
2023-04-22T15:50:35.010Z,21.20
2023-04-22T15:53:03.315Z,21.20
2023-04-22T15:55:32.980Z,20.60
2023-04-22T15:58:01.277Z,20.50
2023-04-22T16:00:29.857Z,20.50
2023-04-22T16:02:58.334Z,20.70
2023-04-22T16:05:28.319Z,21.10
2023-04-22T16:07:56.566Z,21.30
2023-04-22T16:10:26.322Z,21.40
2023-04-22T16:12:55.911Z,21.50
2023-04-22T16:15:26.227Z,21.50
2023-04-22T16:17:54.641Z,21.30
2023-04-22T16:20:23.299Z,21.20
2023-04-22T16:22:51.554Z,21.20
2023-04-22T16:25:20.818Z,21.10
2023-04-22T16:27:49.420Z,21.10
2023-04-22T16:30:19.134Z,20.80
2023-04-22T16:32:47.389Z,20.70
2023-04-22T16:35:15.653Z,20.60
2023-04-22T16:37:45.351Z,20.20
2023-04-22T16:40:14.244Z,20.20
2023-04-22T16:42:42.466Z,19.70
2023-04-22T16:45:11.386Z,19.30
2023-04-22T16:47:41.061Z,19.10
2023-04-22T16:50:12.179Z,18.50
2023-04-22T16:52:40.595Z,17.90
2023-04-22T16:55:09.925Z,18.70
2023-04-22T16:57:38.160Z,19.10
2023-04-22T17:00:08.371Z,19.10
2023-04-22T17:02:36.775Z,19.90
2023-04-22T17:05:07.516Z,19.70
2023-04-22T17:07:35.888Z,20.10
2023-04-22T17:10:04.272Z,20.10
2023-04-22T17:12:32.551Z,20.50
2023-04-22T17:15:00.933Z,20.30
2023-04-22T17:17:29.238Z,20.40
2023-04-22T17:19:57.597Z,20.60
2023-04-22T17:22:27.855Z,20.40
2023-04-22T17:24:58.755Z,20.50
2023-04-22T17:27:27.049Z,20.40
2023-04-22T17:29:55.367Z,20.20
2023-04-22T17:32:23.720Z,20.10
2023-04-22T17:34:52.039Z,20.20
2023-04-22T17:37:20.343Z,20.10
2023-04-22T17:39:49.960Z,19.70
2023-04-22T17:42:18.972Z,19.70
2023-04-22T17:44:47.218Z,19.90
2023-04-22T17:47:15.668Z,19.90
2023-04-22T17:49:44.139Z,19.20
2023-04-22T17:52:12.644Z,19.30
2023-04-22T17:54:40.994Z,19.80
2023-04-22T17:57:11.769Z,19.20
2023-04-22T17:59:40.184Z,19.50
2023-04-22T18:02:11.357Z,19.80
2023-04-22T18:04:39.657Z,19.70
2023-04-22T18:07:07.954Z,19.80
2023-04-22T18:09:36.175Z,19.90
2023-04-22T18:12:05.334Z,20.20
2023-04-22T18:14:35.006Z,20.20
2023-04-22T18:17:03.548Z,19.00
2023-04-22T18:19:31.854Z,19.30
2023-04-22T18:22:00.699Z,19.50
2023-04-22T18:24:29.280Z,19.30
2023-04-22T18:26:58.086Z,18.80
2023-04-22T18:29:26.484Z,19.60
2023-04-22T18:31:56.198Z,19.50
2023-04-22T18:34:24.495Z,19.70
2023-04-22T18:36:52.783Z,18.70
2023-04-22T18:39:21.332Z,18.80
2023-04-22T18:41:49.642Z,19.20
2023-04-22T18:44:18.463Z,18.80
2023-04-22T18:46:46.813Z,19.10
2023-04-22T18:49:16.416Z,19.50
2023-04-22T18:51:46.704Z,18.60
2023-04-22T18:54:14.980Z,19.40
2023-04-22T18:56:43.232Z,19.50
2023-04-22T18:59:12.882Z,19.80
2023-04-22T19:01:41.303Z,20.20
2023-04-22T19:04:09.819Z,20.40
2023-04-22T19:06:39.502Z,20.50
2023-04-22T19:09:07.753Z,18.70
2023-04-22T19:14:04.549Z,15.80
2023-04-22T19:16:32.885Z,15.80
2023-04-22T19:19:01.417Z,16.30
2023-04-22T19:21:30.061Z,17.10
2023-04-22T19:23:59.932Z,17.80
2023-04-22T19:26:29.148Z,18.40
2023-04-22T19:28:57.442Z,19.10
2023-04-22T19:31:28.390Z,19.40
2023-04-22T19:33:56.729Z,19.40
2023-04-22T19:36:25.264Z,19.80
2023-04-22T19:38:53.499Z,19.60
2023-04-22T19:41:24.139Z,19.60
2023-04-22T19:43:52.581Z,17.80
2023-04-22T19:46:20.849Z,19.10
2023-04-22T19:48:50.111Z,19.10
2023-04-22T19:51:18.655Z,17.50
2023-04-22T19:53:47.404Z,17.90
2023-04-22T19:56:16.930Z,17.00
2023-04-22T19:58:47.162Z,17.10
2023-04-22T20:01:16.101Z,17.30
2023-04-22T20:03:45.511Z,17.80
2023-04-22T20:06:15.098Z,18.50
2023-04-22T20:08:44.335Z,17.80
2023-04-22T20:11:13.347Z,17.00
2023-04-22T20:13:42.352Z,17.40
2023-04-22T20:16:13.775Z,17.80
2023-04-22T20:18:42.389Z,18.30
2023-04-22T20:21:10.838Z,18.20
2023-04-22T20:23:41.113Z,17.90
2023-04-22T20:26:10.410Z,18.40
2023-04-22T20:28:46.076Z,18.00
2023-04-22T20:31:18.380Z,18.10
2023-04-22T20:33:47.261Z,19.10
2023-04-22T20:36:17.812Z,19.70
2023-04-22T20:38:47.399Z,19.80
2023-04-22T20:41:18.187Z,19.10
2023-04-22T20:43:47.246Z,19.00
2023-04-22T20:46:17.398Z,19.50
2023-04-22T20:48:45.732Z,19.60
2023-04-22T20:51:14.519Z,19.20
2023-04-22T20:53:43.022Z,18.20
2023-04-22T20:56:11.272Z,18.30
2023-04-22T20:58:39.566Z,18.90
2023-04-22T21:01:09.837Z,18.90
2023-04-22T21:03:41.141Z,19.30
2023-04-22T21:06:10.565Z,19.50
2023-04-22T21:08:40.938Z,19.50
2023-04-22T21:11:10.104Z,19.80
2023-04-22T21:13:39.083Z,20.00
2023-04-22T21:16:10.515Z,19.60
2023-04-22T21:18:44.281Z,19.60
2023-04-22T21:21:13.365Z,18.80
2023-04-22T21:23:42.613Z,19.40
2023-04-22T21:26:12.398Z,19.60
2023-04-22T21:28:41.608Z,19.40
2023-04-22T21:31:11.717Z,19.40
2023-04-22T21:33:41.372Z,19.30
2023-04-22T21:36:10.076Z,19.30
2023-04-22T21:38:38.362Z,19.60
2023-04-22T21:41:06.740Z,19.60
2023-04-22T21:43:35.117Z,18.90
2023-04-22T21:46:03.386Z,19.00
2023-04-22T21:48:31.693Z,19.20
2023-04-22T21:51:01.296Z,19.50
2023-04-22T21:53:29.529Z,19.40
2023-04-22T21:55:57.824Z,19.60
2023-04-22T21:58:26.079Z,19.90
2023-04-22T22:00:55.968Z,19.70
2023-04-22T22:03:24.318Z,19.80
2023-04-22T22:05:52.852Z,19.60
2023-04-22T22:08:22.460Z,19.80
2023-04-22T22:10:50.761Z,19.60
2023-04-22T22:13:18.996Z,19.00
2023-04-22T22:15:47.788Z,18.70
2023-04-22T22:18:16.280Z,19.30
2023-04-22T22:20:45.163Z,19.50
2023-04-22T22:23:13.445Z,19.60
2023-04-22T22:25:43.111Z,19.70
2023-04-22T22:28:11.453Z,19.70
2023-04-22T22:30:39.787Z,19.70
2023-04-22T22:33:08.056Z,19.70
2023-04-22T22:35:36.481Z,19.70
2023-04-22T22:38:04.775Z,19.70
2023-04-22T22:40:33.075Z,19.70
2023-04-22T22:43:02.694Z,19.60
2023-04-22T22:45:31.153Z,19.60
2023-04-22T22:47:59.618Z,19.70
2023-04-22T22:50:28.086Z,19.60
2023-04-22T22:52:56.357Z,19.60
2023-04-22T22:55:25.824Z,19.60
2023-04-22T22:57:54.049Z,19.50
2023-04-22T23:00:23.820Z,19.50
2023-04-22T23:02:52.467Z,19.50
2023-04-22T23:05:21.317Z,19.50
2023-04-22T23:07:49.561Z,19.50
2023-04-22T23:10:17.862Z,19.40
2023-04-22T23:12:46.173Z,19.50
2023-04-22T23:15:14.415Z,19.50
2023-04-22T23:17:44.051Z,19.50
2023-04-22T23:20:14.133Z,19.50
2023-04-22T23:22:43.824Z,19.50
2023-04-22T23:25:14.433Z,19.50
2023-04-22T23:27:44.276Z,19.50
2023-04-22T23:30:13.881Z,19.50
2023-04-22T23:32:45.230Z,19.50
2023-04-22T23:35:14.838Z,19.20
2023-04-22T23:37:46.083Z,19.30
2023-04-22T23:40:14.816Z,19.30
2023-04-22T23:42:43.103Z,19.30
2023-04-22T23:45:12.723Z,19.20
2023-04-22T23:47:41.310Z,19.20
2023-04-22T23:50:14.104Z,19.20
2023-04-22T23:52:42.710Z,19.30
2023-04-22T23:55:13.914Z,19.00
2023-04-22T23:57:42.859Z,19.10
